Time;durP1;ratioP1;P1;durP2;ratioP2;P2;SDS_P1;SDS_P2;PMS_P1;PMS_P2;Temp;Humidity;BMP_temperature;BMP_pressure;BME280_temperature;BME280_humidity;BME280_pressure;Samples;Min_cycle;Max_cycle;Signal;HPM_P1;HPM_P2
2022/05/06 00:01:46;;;;;;;1.63;0.50;;;19.90;63.30;;;;;;5098166;23;20079;-51
2022/05/06 00:03:49;;;;;;;1.10;0.60;;;19.90;63.20;;;;;;5102589;23;20036;-52
2022/05/06 00:05:51;;;;;;;1.02;0.70;;;19.90;63.00;;;;;;5094298;23;20056;-50
2022/05/06 00:07:53;;;;;;;0.85;0.57;;;19.90;63.00;;;;;;5065821;23;20029;-50
2022/05/06 00:09:56;;;;;;;9.82;0.88;;;19.90;63.00;;;;;;5099782;23;20036;-53
2022/05/06 00:11:58;;;;;;;0.40;0.30;;;19.90;62.80;;;;;;5096609;23;21129;-55
2022/05/06 00:14:00;;;;;;;1.77;0.60;;;19.90;62.90;;;;;;5093878;23;20293;-55
2022/05/06 00:16:05;;;;;;;0.93;0.47;;;19.90;62.80;;;;;;5096911;23;20107;-52
2022/05/06 00:18:07;;;;;;;1.40;0.75;;;19.90;62.70;;;;;;5099847;23;20747;-51
2022/05/06 00:20:10;;;;;;;0.63;0.45;;;20.00;62.80;;;;;;5094160;23;20037;-48
2022/05/06 00:22:12;;;;;;;5.72;0.80;;;20.00;62.70;;;;;;5094084;23;20044;-53
2022/05/06 00:24:14;;;;;;;0.65;0.43;;;20.00;62.80;;;;;;5100953;23;20032;-56
2022/05/06 00:26:16;;;;;;;0.63;0.50;;;20.00;62.70;;;;;;5097326;23;20875;-53
2022/05/06 00:28:19;;;;;;;0.80;0.60;;;20.00;62.50;;;;;;5094372;23;20032;-51
2022/05/06 00:30:21;;;;;;;1.08;0.60;;;20.00;62.50;;;;;;5098167;23;20458;-52
2022/05/06 00:32:23;;;;;;;0.60;0.40;;;20.00;62.50;;;;;;5099373;23;20028;-51
2022/05/06 00:34:25;;;;;;;0.63;0.50;;;20.00;62.50;;;;;;5096193;23;20044;-52
2022/05/06 00:36:27;;;;;;;0.50;0.50;;;20.00;62.30;;;;;;5094304;23;20051;-50
2022/05/06 00:38:30;;;;;;;0.50;0.50;;;20.00;62.40;;;;;;5098279;23;20382;-52
2022/05/06 00:40:33;;;;;;;8.63;0.77;;;20.00;62.40;;;;;;5090947;23;20104;-55
2022/05/06 00:42:35;;;;;;;1.08;0.60;;;20.00;62.40;;;;;;5095857;23;20028;-52
2022/05/06 00:44:37;;;;;;;0.82;0.52;;;20.00;62.30;;;;;;5098030;23;20345;-51
2022/05/06 00:46:39;;;;;;;0.70;0.65;;;20.00;62.20;;;;;;5096944;23;20860;-51
2022/05/06 00:48:48;;;;;;;0.90;0.43;;;20.10;62.20;;;;;;5070823;23;20035;-51
2022/05/06 00:50:51;;;;;;;0.60;0.40;;;20.00;62.20;;;;;;5094490;23;20098;-49
2022/05/06 00:52:55;;;;;;;1.33;0.60;;;20.10;62.30;;;;;;5100379;23;20033;-52
2022/05/06 00:54:57;;;;;;;0.80;0.52;;;20.00;62.00;;;;;;5050400;23;20616;-50
2022/05/06 00:57:00;;;;;;;0.57;0.40;;;20.10;62.10;;;;;;5066980;23;20032;-54
2022/05/06 00:59:02;;;;;;;0.80;0.50;;;20.10;62.10;;;;;;5069093;23;20123;-52
2022/05/06 01:01:05;;;;;;;0.43;0.40;;;20.10;62.10;;;;;;5072911;23;20391;-51
2022/05/06 01:03:07;;;;;;;0.43;0.43;;;20.10;62.10;;;;;;5069012;23;20226;-51
2022/05/06 01:05:09;;;;;;;0.98;0.70;;;20.10;61.90;;;;;;5092714;23;20028;-49
2022/05/06 01:07:12;;;;;;;1.65;0.60;;;20.10;61.80;;;;;;5095760;23;20032;-52
2022/05/06 01:09:16;;;;;;;0.80;0.40;;;20.10;61.90;;;;;;5097261;23;20776;-54
2022/05/06 01:11:18;;;;;;;0.70;0.40;;;20.10;61.90;;;;;;5094663;23;20422;-55
2022/05/06 01:13:21;;;;;;;1.30;0.40;;;20.10;61.80;;;;;;5095946;23;20087;-54
2022/05/06 01:15:25;;;;;;;0.85;0.60;;;20.10;61.90;;;;;;5098306;23;20032;-53
2022/05/06 01:17:27;;;;;;;0.50;0.50;;;20.10;61.70;;;;;;5096865;23;20954;-52
2022/05/06 01:19:29;;;;;;;0.55;0.40;;;20.10;61.70;;;;;;5095308;23;20091;-49
2022/05/06 01:21:37;;;;;;;0.45;0.40;;;20.10;61.60;;;;;;5096575;23;20033;-50
2022/05/06 01:23:39;;;;;;;0.40;0.40;;;20.20;61.60;;;;;;5072813;23;20543;-52
2022/05/06 01:25:42;;;;;;;2.25;0.63;;;20.10;61.50;;;;;;5093875;23;20131;-53
2022/05/06 01:27:49;;;;;;;0.35;0.35;;;20.10;61.50;;;;;;5091247;23;20464;-52
2022/05/06 01:29:52;;;;;;;0.80;0.57;;;20.10;61.40;;;;;;5091705;23;20048;-48
2022/05/06 01:31:55;;;;;;;0.47;0.40;;;20.20;61.50;;;;;;5101570;23;20329;-48
2022/05/06 01:33:57;;;;;;;0.73;0.47;;;20.20;61.40;;;;;;5114661;23;20032;-51
2022/05/06 01:36:12;;;;;;;1.45;0.60;;;20.20;61.40;;;;;;5112699;23;20028;-50
2022/05/06 01:38:41;;;;;;;1.95;0.50;;;20.20;61.30;;;;;;5089360;23;20025;-51
2022/05/06 01:40:55;;;;;;;0.73;0.47;;;20.20;61.20;;;;;;5098992;23;20326;-56
2022/05/06 01:42:59;;;;;;;1.77;0.50;;;20.20;61.20;;;;;;5100050;23;20485;-52
2022/05/06 01:45:02;;;;;;;0.50;0.40;;;20.20;61.20;;;;;;5102889;23;20035;-52
2022/05/06 01:47:14;;;;;;;0.95;0.55;;;20.20;61.20;;;;;;5091149;23;20401;-52
2022/05/06 01:49:18;;;;;;;0.57;0.55;;;20.20;61.10;;;;;;5094089;23;20373;-53
2022/05/06 01:51:22;;;;;;;0.73;0.65;;;20.20;60.80;;;;;;5094253;23;20059;-49
2022/05/06 01:53:25;;;;;;;1.50;0.60;;;20.20;60.80;;;;;;5097246;23;20587;-50
2022/05/06 01:55:27;;;;;;;1.60;0.50;;;20.30;61.00;;;;;;5095691;23;20585;-55
2022/05/06 01:57:30;;;;;;;1.67;0.50;;;20.20;60.90;;;;;;5091193;23;20024;-54
2022/05/06 01:59:32;;;;;;;2.33;0.52;;;20.20;61.00;;;;;;5092610;23;20187;-52
2022/05/06 02:01:34;;;;;;;0.57;0.40;;;20.20;61.00;;;;;;5095682;23;20432;-54
2022/05/06 02:05:56;;;;;;;0.43;0.43;;;20.20;60.90;;;;;;5096431;23;20071;-53
2022/05/06 02:07:59;;;;;;;7.65;0.70;;;20.30;60.90;;;;;;5066440;23;20025;-54
2022/05/06 02:10:01;;;;;;;0.95;0.40;;;20.30;60.90;;;;;;5092468;23;20093;-53
2022/05/06 02:12:03;;;;;;;0.93;0.60;;;20.30;60.80;;;;;;5099277;23;20063;-55
2022/05/06 02:14:06;;;;;;;0.73;0.40;;;20.30;60.80;;;;;;5092585;23;20136;-49
2022/05/06 02:16:08;;;;;;;0.57;0.40;;;20.30;60.80;;;;;;5093773;23;20414;-52
2022/05/06 02:18:10;;;;;;;0.20;0.20;;;20.30;60.70;;;;;;5095204;23;20348;-52
2022/05/06 02:20:13;;;;;;;0.73;0.40;;;20.30;60.70;;;;;;5095377;23;20631;-51
2022/05/06 02:22:15;;;;;;;2.00;0.50;;;20.30;60.70;;;;;;5093235;23;20479;-50
2022/05/06 02:24:17;;;;;;;0.20;0.20;;;20.30;60.60;;;;;;5096287;23;20111;-49
2022/05/06 02:26:19;;;;;;;0.80;0.40;;;20.30;60.70;;;;;;5099586;23;20024;-51
2022/05/06 02:28:22;;;;;;;0.52;0.43;;;20.30;60.60;;;;;;5092164;23;20489;-52
2022/05/06 02:35:05;;;;;;;3.60;0.55;;;20.40;60.70;;;;;;5096450;23;20416;-51
2022/05/06 02:37:08;;;;;;;2.70;0.65;;;20.40;59.70;;;;;;5093037;23;20465;-52
2022/05/06 02:39:10;;;;;;;2.73;0.60;;;20.40;59.90;;;;;;5094849;23;20060;-49
2022/05/06 02:41:14;;;;;;;1.33;0.63;;;20.40;60.00;;;;;;5097917;23;20059;-51
2022/05/06 02:43:17;;;;;;;7.45;0.52;;;20.40;60.10;;;;;;5092653;23;20630;-52
2022/05/06 02:45:19;;;;;;;1.88;0.40;;;20.40;60.10;;;;;;5094558;23;20329;-50
2022/05/06 02:47:21;;;;;;;1.98;0.50;;;20.40;60.20;;;;;;5093609;23;20155;-51
2022/05/06 02:49:23;;;;;;;0.98;0.30;;;20.40;60.30;;;;;;5095191;23;20427;-53
2022/05/06 02:51:28;;;;;;;0.75;0.30;;;20.40;60.30;;;;;;5092411;23;20058;-53
2022/05/06 02:53:30;;;;;;;7.60;0.90;;;20.40;60.40;;;;;;5092082;23;20029;-56
2022/05/06 02:55:33;;;;;;;2.38;0.68;;;20.40;60.20;;;;;;5098174;23;20727;-58
2022/05/06 02:57:35;;;;;;;1.50;0.70;;;20.40;60.20;;;;;;5067785;23;20219;-56
2022/05/06 02:59:39;;;;;;;0.98;0.70;;;20.40;60.10;;;;;;5092321;23;20029;-48
2022/05/06 03:01:41;;;;;;;5.30;0.68;;;20.40;60.20;;;;;;5095602;23;20126;-47
2022/05/06 03:03:43;;;;;;;1.98;0.50;;;20.40;60.40;;;;;;5097376;23;20035;-52
2022/05/06 03:05:45;;;;;;;2.53;0.77;;;20.40;60.30;;;;;;5093280;23;20035;-51
2022/05/06 03:07:47;;;;;;;2.90;0.50;;;20.50;60.30;;;;;;5096586;23;20024;-51
2022/05/06 03:09:52;;;;;;;2.55;0.50;;;20.50;59.80;;;;;;5102286;23;20378;-52
2022/05/06 03:11:54;;;;;;;0.85;0.40;;;20.50;59.50;;;;;;5068758;23;20614;-49
2022/05/06 03:13:56;;;;;;;1.77;0.50;;;20.50;59.60;;;;;;5092487;23;20028;-52
2022/05/06 03:15:58;;;;;;;1.73;0.43;;;20.50;59.70;;;;;;5096683;23;20126;-51
2022/05/06 03:18:00;;;;;;;0.90;0.40;;;20.50;59.80;;;;;;5096763;23;20016;-48
2022/05/06 03:20:08;;;;;;;2.88;0.63;;;20.50;59.80;;;;;;5066868;23;20057;-54
2022/05/06 03:22:10;;;;;;;0.93;0.80;;;20.60;59.90;;;;;;5093637;23;20472;-53
2022/05/06 03:24:12;;;;;;;2.03;0.88;;;20.60;59.50;;;;;;5076997;23;20051;-52
2022/05/06 03:26:14;;;;;;;5.63;1.40;;;20.60;59.50;;;;;;5069863;23;20705;-54
2022/05/06 03:28:16;;;;;;;3.10;1.70;;;20.60;59.40;;;;;;5096342;23;20032;-50
2022/05/06 03:30:19;;;;;;;5.18;1.92;;;20.70;58.90;;;;;;5098352;23;20060;-57
2022/05/06 03:32:22;;;;;;;4.30;2.10;;;20.70;58.80;;;;;;5073277;23;20104;-62
2022/05/06 03:34:24;;;;;;;5.53;2.45;;;20.70;59.10;;;;;;5095070;23;20258;-57
2022/05/06 03:36:26;;;;;;;3.80;2.50;;;20.70;59.00;;;;;;5069769;23;20111;-53
2022/05/06 03:38:28;;;;;;;3.42;2.45;;;20.80;59.20;;;;;;5099821;23;20032;-55
2022/05/06 03:40:32;;;;;;;3.95;2.38;;;20.80;59.40;;;;;;5099427;23;20047;-53
2022/05/06 03:42:34;;;;;;;4.68;2.70;;;20.90;59.50;;;;;;5102282;23;20107;-55
2022/05/06 03:44:36;;;;;;;4.80;2.70;;;20.90;59.50;;;;;;5106778;23;20060;-50
2022/05/06 03:46:38;;;;;;;5.32;3.33;;;20.90;59.50;;;;;;5103518;23;20669;-56
2022/05/06 03:48:40;;;;;;;3.97;2.95;;;21.00;59.50;;;;;;5103200;23;20348;-54
2022/05/06 03:53:03;;;;;;;4.05;3.20;;;21.10;59.30;;;;;;5081571;23;20032;-58
2022/05/06 03:55:06;;;;;;;4.53;3.85;;;21.10;59.10;;;;;;5099448;23;20094;-57
2022/05/06 03:57:08;;;;;;;6.88;4.00;;;21.20;59.00;;;;;;5072755;23;21009;-57
2022/05/06 03:59:10;;;;;;;4.18;3.78;;;21.20;58.80;;;;;;5086436;23;20476;-52
2022/05/06 04:01:12;;;;;;;4.78;3.83;;;21.30;58.90;;;;;;5091057;23;20377;-59
2022/05/06 04:03:14;;;;;;;6.32;5.20;;;21.30;58.70;;;;;;5099862;23;20191;-56
2022/05/06 04:05:16;;;;;;;6.53;5.40;;;21.30;58.10;;;;;;5093163;23;20194;-54
2022/05/06 04:07:19;;;;;;;6.90;5.65;;;21.40;58.20;;;;;;5091729;23;20044;-56
2022/05/06 04:09:21;;;;;;;10.07;5.55;;;21.40;58.10;;;;;;5098638;23;20598;-58
2022/05/06 04:11:24;;;;;;;6.85;5.97;;;21.50;58.50;;;;;;5091616;23;20028;-53
2022/05/06 04:13:26;;;;;;;;;;;21.50;58.60;;;;;;5091661;23;20484;-57
2022/05/06 04:15:28;;;;;;;15.98;5.30;;;21.50;58.50;;;;;;5095074;23;19920;-55
2022/05/06 04:17:30;;;;;;;5.13;4.65;;;21.70;58.50;;;;;;5096845;23;20663;-57
2022/05/06 04:19:32;;;;;;;9.82;4.40;;;21.70;58.40;;;;;;5094019;23;20095;-55
2022/05/06 04:23:55;;;;;;;4.88;4.10;;;21.90;58.10;;;;;;5092643;23;20024;-56
2022/05/06 04:26:01;;;;;;;5.10;3.78;;;22.00;58.20;;;;;;5093775;23;20503;-53
2022/05/06 04:28:04;;;;;;;5.55;4.10;;;22.00;58.10;;;;;;5097447;23;20040;-55
2022/05/06 04:30:06;;;;;;;5.57;4.18;;;22.10;58.10;;;;;;5095917;23;20477;-54
2022/05/06 04:32:09;;;;;;;4.45;3.90;;;22.10;57.90;;;;;;5094042;23;20028;-52
2022/05/06 04:34:11;;;;;;;3.95;3.55;;;22.20;57.90;;;;;;5095659;23;20487;-57
2022/05/06 04:36:13;;;;;;;3.90;3.35;;;22.30;57.80;;;;;;5073888;23;20678;-58
2022/05/06 04:38:15;;;;;;;4.00;3.50;;;22.30;57.70;;;;;;5092471;23;20056;-51
2022/05/06 04:40:18;;;;;;;3.42;3.08;;;22.40;57.80;;;;;;5092140;23;20384;-54
2022/05/06 04:42:21;;;;;;;4.07;3.20;;;22.40;57.60;;;;;;5100361;23;20029;-53
2022/05/06 04:44:23;;;;;;;3.45;3.15;;;22.40;57.50;;;;;;5094358;23;20106;-57
2022/05/06 04:46:25;;;;;;;3.58;3.00;;;22.50;57.50;;;;;;5059556;23;20163;-56
2022/05/06 04:48:29;;;;;;;3.92;2.70;;;22.50;57.40;;;;;;5097160;23;20032;-55
2022/05/06 04:50:32;;;;;;;3.13;2.70;;;22.50;57.30;;;;;;5098704;23;20188;-57
2022/05/06 04:52:34;;;;;;;3.47;2.90;;;22.60;57.20;;;;;;5092463;23;20713;-57
2022/05/06 04:54:36;;;;;;;4.05;2.70;;;22.60;57.20;;;;;;5089531;23;20047;-57
2022/05/06 04:56:38;;;;;;;2.70;2.23;;;22.70;57.10;;;;;;5073225;23;20028;-52
2022/05/06 04:58:40;;;;;;;3.25;2.45;;;22.70;57.00;;;;;;5066656;23;20728;-57
2022/05/06 05:00:43;;;;;;;2.88;2.50;;;22.70;56.90;;;;;;5090749;23;20116;-59
2022/05/06 05:02:46;;;;;;;2.90;2.40;;;22.70;56.80;;;;;;5070915;23;20220;-56
2022/05/06 05:04:52;;;;;;;2.95;2.17;;;22.80;56.80;;;;;;5097972;23;20254;-55
2022/05/06 05:06:57;;;;;;;2.60;2.40;;;22.90;56.70;;;;;;5091895;23;20074;-57
2022/05/06 05:08:59;;;;;;;3.00;2.38;;;22.90;56.50;;;;;;5090719;23;20028;-52
2022/05/06 05:11:05;;;;;;;2.92;2.08;;;22.90;56.30;;;;;;5068115;23;20509;-55
2022/05/06 05:13:07;;;;;;;2.55;1.90;;;23.00;56.20;;;;;;5096552;23;20031;-56
2022/05/06 05:15:10;;;;;;;2.65;2.15;;;23.00;56.10;;;;;;5092787;23;20032;-55
2022/05/06 05:17:12;;;;;;;2.42;1.67;;;23.00;56.10;;;;;;5090726;23;20134;-55
2022/05/06 05:19:14;;;;;;;2.03;1.80;;;23.00;56.10;;;;;;5098795;23;20178;-53
2022/05/06 05:21:16;;;;;;;2.15;1.65;;;23.00;56.20;;;;;;5093131;23;21202;-55
2022/05/06 05:23:18;;;;;;;2.58;1.73;;;23.00;56.00;;;;;;5090025;23;20029;-56
2022/05/06 05:25:20;;;;;;;3.33;1.48;;;23.00;56.00;;;;;;5095440;23;20028;-57
2022/05/06 05:27:22;;;;;;;1.60;1.50;;;23.00;56.20;;;;;;5095925;23;20546;-55
2022/05/06 05:29:25;;;;;;;2.55;1.70;;;23.00;56.10;;;;;;5090975;23;20040;-49
2022/05/06 05:31:27;;;;;;;1.65;1.50;;;23.00;56.10;;;;;;5064510;23;20430;-57
2022/05/06 05:33:30;;;;;;;1.67;1.33;;;23.00;56.20;;;;;;5098090;23;20357;-54
2022/05/06 05:35:33;;;;;;;1.40;1.30;;;23.00;56.10;;;;;;5091585;23;20074;-58
2022/05/06 05:37:35;;;;;;;2.22;1.50;;;23.00;56.10;;;;;;5090726;23;20549;-55
2022/05/06 05:39:38;;;;;;;2.10;1.40;;;23.00;56.10;;;;;;5094979;23;20063;-57
2022/05/06 05:41:40;;;;;;;2.33;1.45;;;22.90;56.10;;;;;;5088654;23;20029;-58
2022/05/06 05:48:23;;;;;;;2.05;1.55;;;22.90;56.20;;;;;;5091046;23;20028;-59
2022/05/06 05:50:27;;;;;;;2.87;1.67;;;22.90;56.20;;;;;;5086374;23;20480;-56
2022/05/06 05:52:29;;;;;;;2.10;1.70;;;22.90;56.20;;;;;;5082646;23;20076;-51
2022/05/06 05:54:32;;;;;;;3.65;1.92;;;22.90;56.20;;;;;;5086487;23;20163;-56
2022/05/06 05:56:38;;;;;;;2.10;1.60;;;22.90;56.20;;;;;;5089046;23;20272;-56
2022/05/06 05:58:40;;;;;;;2.40;1.70;;;22.90;56.20;;;;;;5097022;23;20446;-55
2022/05/06 06:00:42;;;;;;;3.07;1.60;;;22.90;56.30;;;;;;5072200;23;20524;-59
2022/05/06 06:02:44;;;;;;;4.47;2.10;;;22.90;56.30;;;;;;5111780;23;20377;-58
2022/05/06 06:04:47;;;;;;;3.80;1.90;;;22.90;56.30;;;;;;5058759;23;20049;-56
2022/05/06 06:06:49;;;;;;;4.70;1.98;;;22.80;56.30;;;;;;5097159;23;20326;-53
2022/05/06 06:08:52;;;;;;;11.90;1.60;;;22.90;56.50;;;;;;5094011;23;20032;-55
2022/05/06 06:10:54;;;;;;;3.40;1.73;;;22.80;56.50;;;;;;5098995;23;20024;-56
2022/05/06 06:12:57;;;;;;;4.25;1.70;;;22.80;56.50;;;;;;5090400;23;20064;-56
2022/05/06 06:14:59;;;;;;;3.15;1.92;;;22.80;56.50;;;;;;5091132;23;20135;-54
2022/05/06 06:17:02;;;;;;;1.90;1.40;;;22.80;56.50;;;;;;5092373;23;20036;-52
2022/05/06 06:19:05;;;;;;;9.55;1.70;;;22.80;56.50;;;;;;5092362;23;20024;-55
2022/05/06 06:21:07;;;;;;;2.80;1.55;;;22.80;56.50;;;;;;5092057;23;20028;-53
2022/05/06 06:23:09;;;;;;;3.00;1.50;;;22.80;56.50;;;;;;5065565;23;20072;-54
2022/05/06 06:25:11;;;;;;;2.67;1.40;;;22.80;57.20;;;;;;5093218;23;20029;-56
2022/05/06 06:27:13;;;;;;;2.58;1.40;;;22.80;56.50;;;;;;5089374;23;20305;-56
2022/05/06 06:29:15;;;;;;;3.10;1.45;;;22.90;56.60;;;;;;5090848;23;20055;-53
2022/05/06 06:31:17;;;;;;;2.85;1.70;;;22.80;56.70;;;;;;5096829;23;20094;-56
2022/05/06 06:33:19;;;;;;;6.47;3.13;;;22.80;56.50;;;;;;5089309;23;20432;-54
2022/05/06 06:35:22;;;;;;;8.68;3.50;;;22.90;56.20;;;;;;5091922;23;20048;-53
2022/05/06 06:37:25;;;;;;;7.10;3.97;;;22.90;56.00;;;;;;5096697;23;20036;-56
2022/05/06 06:39:28;;;;;;;10.60;4.65;;;22.90;55.90;;;;;;5093287;23;20338;-55
2022/05/06 06:41:30;;;;;;;7.35;4.55;;;22.90;55.80;;;;;;5093174;23;20060;-53
2022/05/06 06:43:32;;;;;;;8.13;4.90;;;22.90;55.80;;;;;;5093545;23;20560;-52
2022/05/06 06:45:35;;;;;;;9.80;6.13;;;22.90;55.60;;;;;;5065710;23;20037;-55
2022/05/06 06:47:38;;;;;;;10.27;6.45;;;22.80;54.90;;;;;;5065259;23;20029;-54
2022/05/06 06:49:40;;;;;;;12.65;7.45;;;22.80;54.70;;;;;;5064773;23;20055;-56
2022/05/06 06:51:42;;;;;;;8.50;6.20;;;22.80;54.00;;;;;;5069919;23;20087;-55
2022/05/06 06:53:44;;;;;;;9.18;7.07;;;22.70;54.20;;;;;;5063660;23;20160;-58
2022/05/06 06:55:46;;;;;;;8.98;6.85;;;22.70;54.10;;;;;;5088727;23;20028;-58
2022/05/06 06:57:50;;;;;;;9.27;6.57;;;22.60;54.30;;;;;;5092911;23;20102;-56
2022/05/06 06:59:52;;;;;;;11.02;6.63;;;22.60;54.30;;;;;;5092500;23;20399;-57
2022/05/06 07:01:54;;;;;;;9.88;6.82;;;22.60;54.40;;;;;;5061572;23;20036;-54
2022/05/06 07:03:56;;;;;;;7.50;5.45;;;22.50;54.40;;;;;;5062941;23;20025;-54
2022/05/06 07:13:00;;;;;;;7.40;4.70;;;22.40;54.20;;;;;;5090284;23;20558;-53
2022/05/06 07:15:03;;;;;;;7.78;4.75;;;22.40;54.30;;;;;;5091118;23;20039;-50
2022/05/06 07:17:05;;;;;;;8.40;4.72;;;22.40;54.40;;;;;;5096782;23;20024;-49
2022/05/06 07:19:07;;;;;;;10.95;4.20;;;22.30;54.40;;;;;;5068744;23;20030;-55
2022/05/06 07:21:09;;;;;;;6.47;4.05;;;22.30;54.50;;;;;;5091329;23;20422;-56
2022/05/06 07:23:11;;;;;;;11.85;4.32;;;22.30;54.40;;;;;;5091620;23;20024;-53
2022/05/06 07:25:13;;;;;;;11.90;3.78;;;22.30;54.50;;;;;;5096850;23;20083;-59
2022/05/06 07:27:17;;;;;;;10.73;3.67;;;22.20;54.50;;;;;;5089709;23;20032;-59
2022/05/06 07:29:20;;;;;;;9.23;3.38;;;22.20;54.80;;;;;;5066841;23;20400;-61
2022/05/06 07:31:22;;;;;;;6.82;3.25;;;22.20;55.10;;;;;;5070585;23;20114;-60
2022/05/06 07:33:24;;;;;;;4.37;2.80;;;22.20;56.00;;;;;;4995444;23;2349035;-54
2022/05/06 07:35:26;;;;;;;7.22;2.95;;;22.20;57.30;;;;;;5093169;23;20448;-52
2022/05/06 07:37:33;;;;;;;15.02;3.22;;;22.20;58.60;;;;;;5072577;23;20033;-52
2022/05/06 07:39:35;;;;;;;5.00;2.83;;;22.30;58.50;;;;;;5074314;23;20025;-50
2022/05/06 07:41:38;;;;;;;6.18;2.67;;;22.20;58.00;;;;;;5096208;23;20552;-52
2022/05/06 07:43:40;;;;;;;4.13;2.72;;;22.20;56.60;;;;;;5096389;23;20428;-51
2022/05/06 07:45:43;;;;;;;5.38;2.28;;;22.20;56.50;;;;;;5101733;23;20143;-50
2022/05/06 07:47:45;;;;;;;3.40;2.10;;;22.10;56.10;;;;;;5099618;23;20024;-50
2022/05/06 07:49:47;;;;;;;4.45;2.10;;;22.10;55.90;;;;;;5096683;23;20032;-53
2022/05/06 07:51:49;;;;;;;3.95;2.20;;;22.10;56.00;;;;;;5095553;23;20028;-52
2022/05/06 07:53:52;;;;;;;3.13;2.03;;;22.00;56.00;;;;;;5100870;23;20055;-50
2022/05/06 07:55:54;;;;;;;5.47;2.15;;;22.00;55.90;;;;;;5094382;23;20536;-54
2022/05/06 07:57:57;;;;;;;3.25;2.08;;;22.00;56.00;;;;;;5090229;23;20095;-52
2022/05/06 07:59:59;;;;;;;3.33;2.10;;;21.90;55.90;;;;;;5072235;23;20048;-56
2022/05/06 08:04:34;;;;;;;3.47;2.00;;;21.90;56.20;;;;;;5099828;23;20084;-53
2022/05/06 08:06:36;;;;;;;3.67;2.00;;;21.80;56.20;;;;;;5096457;23;20083;-53
2022/05/06 08:08:38;;;;;;;2.47;1.60;;;21.80;56.40;;;;;;5093880;23;20098;-56
2022/05/06 08:10:41;;;;;;;3.37;1.90;;;21.80;57.00;;;;;;5089649;23;20065;-53
2022/05/06 08:12:43;;;;;;;2.28;1.45;;;21.70;56.40;;;;;;5089466;23;20475;-55
2022/05/06 08:14:45;;;;;;;2.45;1.50;;;21.70;56.40;;;;;;5093686;23;20032;-52
2022/05/06 08:16:49;;;;;;;1.95;1.40;;;21.70;56.50;;;;;;5087375;23;20449;-51
2022/05/06 08:18:51;;;;;;;;;;;21.70;56.70;;;;;;5090691;23;20132;-55
2022/05/06 08:20:54;;;;;;;2.05;1.35;;;21.60;56.70;;;;;;5095879;23;20318;-52
2022/05/06 08:22:56;;;;;;;1.90;1.27;;;21.60;56.50;;;;;;5091883;23;20894;-53
2022/05/06 08:24:58;;;;;;;2.78;1.50;;;21.60;56.50;;;;;;5087508;23;20322;-50
2022/05/06 08:27:01;;;;;;;2.25;1.40;;;21.50;56.50;;;;;;5092572;23;20102;-52
2022/05/06 08:29:04;;;;;;;2.95;1.73;;;21.50;56.50;;;;;;5093416;23;20867;-49
2022/05/06 08:31:06;;;;;;;2.28;1.42;;;21.50;56.40;;;;;;5090692;23;20078;-50
2022/05/06 08:33:08;;;;;;;3.17;1.80;;;21.50;56.50;;;;;;5089226;23;20523;-54
2022/05/06 08:35:10;;;;;;;2.40;1.60;;;21.50;56.50;;;;;;5096450;23;20055;-52
2022/05/06 08:37:12;;;;;;;2.78;1.80;;;21.40;56.40;;;;;;5088648;23;20071;-51
2022/05/06 08:39:14;;;;;;;3.80;2.67;;;21.40;56.60;;;;;;5092635;23;20445;-53
2022/05/06 08:41:19;;;;;;;5.63;3.22;;;21.40;56.60;;;;;;5098320;23;20127;-49
2022/05/06 08:43:21;;;;;;;5.57;3.20;;;21.40;56.70;;;;;;5096080;23;20028;-54
2022/05/06 08:52:37;;;;;;;7.75;4.88;;;21.30;56.30;;;;;;5059160;23;20028;-50
2022/05/06 08:54:39;;;;;;;7.40;4.82;;;21.30;56.40;;;;;;5088095;23;20322;-49
2022/05/06 08:56:41;;;;;;;7.28;5.40;;;21.20;56.40;;;;;;5093677;23;20033;-52
2022/05/06 08:58:43;;;;;;;8.65;5.65;;;21.20;56.50;;;;;;5090304;23;20028;-55
2022/05/06 09:00:45;;;;;;;7.32;4.85;;;21.20;56.50;;;;;;5088721;23;20427;-52
2022/05/06 09:02:47;;;;;;;7.35;5.97;;;21.20;56.40;;;;;;5067338;23;20031;-53
2022/05/06 09:04:50;;;;;;;8.68;6.18;;;21.10;56.50;;;;;;5095005;23;20100;-52
2022/05/06 09:07:13;;;;;;;7.60;6.53;;;21.10;56.50;;;;;;5090771;23;20025;-50
2022/05/06 09:09:18;;;;;;;7.93;6.80;;;21.10;57.20;;;;;;5092465;23;20261;-49
2022/05/06 09:13:55;;;;;;;7.82;5.75;;;21.10;56.60;;;;;;5095128;23;20391;-56
2022/05/06 09:18:39;;;;;;;9.00;6.55;;;21.00;56.70;;;;;;5096426;23;20380;-56
2022/05/06 09:20:42;;;;;;;8.55;6.28;;;21.00;56.70;;;;;;5089721;23;20464;-55
2022/05/06 09:22:44;;;;;;;8.87;6.20;;;21.00;56.60;;;;;;5062871;23;20057;-52
2022/05/06 09:24:47;;;;;;;7.55;5.75;;;21.00;56.70;;;;;;5094300;23;20388;-50
2022/05/06 09:27:01;;;;;;;8.85;6.30;;;20.90;56.50;;;;;;5093625;23;20898;-54
2022/05/06 09:29:03;;;;;;;6.95;6.25;;;20.90;56.70;;;;;;5094477;23;20780;-49
2022/05/06 09:31:09;;;;;;;7.40;5.60;;;20.90;56.70;;;;;;5089359;23;20468;-53
2022/05/06 09:33:25;;;;;;;7.03;5.72;;;20.90;56.70;;;;;;5089922;23;20258;-50
2022/05/06 09:35:32;;;;;;;6.40;5.22;;;20.90;56.70;;;;;;5090258;23;20029;-51
2022/05/06 09:37:48;;;;;;;7.18;5.38;;;20.90;56.70;;;;;;5090166;23;20131;-51
2022/05/06 09:40:20;;;;;;;7.53;5.18;;;20.80;56.70;;;;;;5090296;23;20040;-53
2022/05/06 09:42:24;;;;;;;9.23;5.35;;;20.80;56.70;;;;;;5094852;23;20042;-54
2022/05/06 09:44:27;;;;;;;5.63;4.55;;;20.80;56.70;;;;;;5094005;23;20032;-50
2022/05/06 09:46:30;;;;;;;6.18;4.53;;;20.80;56.70;;;;;;5091162;23;20044;-49
2022/05/06 09:48:33;;;;;;;6.63;4.95;;;20.80;56.70;;;;;;5089760;23;20134;-54
2022/05/06 09:50:40;;;;;;;6.68;4.80;;;20.70;56.60;;;;;;5096963;23;20705;-52
2022/05/06 09:52:42;;;;;;;6.60;4.70;;;20.70;56.60;;;;;;5094212;23;20516;-55
2022/05/06 09:54:47;;;;;;;5.47;4.32;;;20.70;56.80;;;;;;5089240;23;20090;-53
2022/05/06 09:56:50;;;;;;;6.43;4.30;;;20.70;56.90;;;;;;5094552;23;20028;-50
2022/05/06 09:58:54;;;;;;;6.10;4.23;;;20.70;56.80;;;;;;5097012;23;20071;-55
2022/05/06 10:00:56;;;;;;;4.97;3.70;;;20.70;56.80;;;;;;5092379;23;20705;-50
2022/05/06 10:02:58;;;;;;;4.80;3.58;;;20.70;56.80;;;;;;5091096;23;20063;-55
2022/05/06 10:05:01;;;;;;;5.10;3.58;;;20.60;56.90;;;;;;5093727;23;20024;-51
2022/05/06 10:07:13;;;;;;;4.93;4.00;;;20.60;56.80;;;;;;5098256;23;20168;-50
2022/05/06 10:09:21;;;;;;;4.85;3.40;;;20.60;57.00;;;;;;5095402;23;20028;-54
2022/05/06 10:11:28;;;;;;;5.10;3.70;;;20.60;56.90;;;;;;5093270;23;20807;-53
2022/05/06 10:13:32;;;;;;;4.68;3.30;;;20.60;56.90;;;;;;5089076;23;20371;-48
2022/05/06 10:15:35;;;;;;;4.95;3.40;;;20.60;56.80;;;;;;5091963;23;20055;-53
2022/05/06 10:17:50;;;;;;;4.03;3.00;;;20.60;56.80;;;;;;5097203;23;20056;-51
2022/05/06 10:19:52;;;;;;;4.60;3.22;;;20.50;57.00;;;;;;5094602;23;20024;-51
2022/05/06 10:21:58;;;;;;;4.65;3.35;;;20.50;56.90;;;;;;5067457;23;20491;-51
2022/05/06 10:24:15;;;;;;;4.25;2.95;;;20.50;56.90;;;;;;5090294;23;20029;-53
2022/05/06 10:26:41;;;;;;;4.45;3.30;;;20.50;56.90;;;;;;5093231;23;20024;-51
2022/05/06 10:34:11;;;;;;;5.50;3.35;;;20.40;57.00;;;;;;5090954;23;20032;-51
2022/05/06 10:36:43;;;;;;;3.75;2.75;;;20.40;57.10;;;;;;5097003;23;20439;-56
2022/05/06 10:38:48;;;;;;;4.40;3.13;;;20.40;57.20;;;;;;5092934;23;20033;-51
2022/05/06 10:40:57;;;;;;;4.32;3.00;;;20.40;57.20;;;;;;5095362;23;20039;-53
2022/05/06 10:42:59;;;;;;;5.43;3.20;;;20.40;57.20;;;;;;5103037;23;20028;-54
2022/05/06 10:45:32;;;;;;;4.43;3.13;;;20.40;57.20;;;;;;5111442;23;20024;-52
2022/05/06 10:47:40;;;;;;;4.43;3.08;;;20.40;57.20;;;;;;5105322;23;20570;-52
2022/05/06 10:49:48;;;;;;;4.13;2.97;;;20.30;57.10;;;;;;5112122;23;20016;-56
2022/05/06 10:51:50;;;;;;;5.50;3.20;;;20.30;57.20;;;;;;5108489;23;20032;-54
2022/05/06 10:53:53;;;;;;;3.80;2.63;;;20.30;57.30;;;;;;5111878;23;20103;-53
2022/05/06 10:55:55;;;;;;;3.75;2.58;;;20.30;57.30;;;;;;5105706;23;20118;-52
2022/05/06 10:58:06;;;;;;;3.70;2.70;;;20.30;57.40;;;;;;5089086;23;20501;-55
2022/05/06 11:00:09;;;;;;;4.78;2.88;;;20.20;57.20;;;;;;5090380;23;20029;-54
2022/05/06 11:02:14;;;;;;;4.78;3.00;;;20.20;57.20;;;;;;5098604;23;20055;-54
2022/05/06 11:04:19;;;;;;;4.05;2.80;;;20.20;57.30;;;;;;5069897;23;20136;-54
2022/05/06 11:06:24;;;;;;;3.88;2.70;;;20.20;57.30;;;;;;5091667;23;20065;-56
2022/05/06 11:08:33;;;;;;;3.58;2.50;;;20.20;57.40;;;;;;5091753;23;20276;-53
2022/05/06 11:10:36;;;;;;;3.72;2.60;;;20.20;57.40;;;;;;5090543;23;20118;-54
2022/05/06 11:12:43;;;;;;;4.00;2.60;;;20.10;57.60;;;;;;5097099;23;20397;-52
2022/05/06 11:14:46;;;;;;;3.30;2.25;;;20.10;58.00;;;;;;5097582;23;20229;-53
2022/05/06 11:16:48;;;;;;;3.38;2.35;;;20.10;57.50;;;;;;5091839;23;20051;-54
2022/05/06 11:18:50;;;;;;;4.03;2.58;;;20.10;57.40;;;;;;5089926;23;20168;-52
2022/05/06 11:20:53;;;;;;;4.00;2.67;;;20.10;57.40;;;;;;5096852;23;20408;-52
2022/05/06 11:23:03;;;;;;;3.80;2.65;;;20.10;57.50;;;;;;5090163;23;20304;-54
2022/05/06 11:25:06;;;;;;;4.60;2.45;;;20.10;57.30;;;;;;5091568;23;20353;-49
2022/05/06 11:27:16;;;;;;;4.88;2.72;;;20.10;57.40;;;;;;5091135;23;20032;-53
2022/05/06 11:29:18;;;;;;;4.68;2.80;;;20.00;57.50;;;;;;5088413;23;20472;-53